Main page
METAR-TAF:

METAR-TAF

Airports :

Mary International Airport

Mary, Turkmenistan

latitude: 37-36-24N, longitude: 061-54-05E, elevation: 222 m

Current weather observation

The report was made 24 minutes ago, at 18:00 UTC
Calm wind
Temperature 12°C
Humidity 62%
Pressure 1018 hPa
Visibility: 6000 m
Scattered clouds at a height of 23000 ft

METAR: UTAM 251800Z 00000KT 6000 SCT230 12/05 Q1018 R88/CLRD70 NOSIG

Time: 23:24 (18:24 UTC)

Forecast

The report was made 1 hour and 54 minutes ago, at 16:30 UTC
Forecast valid from 25 at 18 UTC to 26 at 18 UTC
Wind 4 kt from variable directions
Visibility: 5000 m
Scattered clouds at a height of 5000 ft
Temporary
from 26 at 00 UTC to 26 at 04 UTC
Visibility: 3000 m
haze, smoke
Becoming
from 26 at 04 UTC to 26 at 05 UTC
Visibility 10 km or more
no clouds below 1500 m and no cumulonimbus

TAF: UTAM 251630Z 2518/2618 VRB04KT 5000 SCT050 TEMPO 2600/2604 3000 HZ FU BECMG 2604/2605 CAVOK

Weather observations and forecasts of more than 4000 airports (METAR and TAF reports).

The available stations are represented by yellow and red dots on the map.

Hover mouse over dot to see the name of the station.

Then click to see weather observations and forecasts.

To change the map : click on the green buttons with a black cross to zoom in, on the green button with a dash to zoom out, or on the green arrows for adjacent maps.


METAR-TAF: